Time;durP1;ratioP1;P1;durP2;ratioP2;P2;SDS_P1;SDS_P2;PMS_P1;PMS_P2;Temp;Humidity;BMP_temperature;BMP_pressure;BME280_temperature;BME280_humidity;BME280_pressure;Samples;Min_cycle;Max_cycle;Signal;HPM_P1;HPM_P2
2022/08/18 00:02:08;;;;;;;8.68;3.10;;;;;;;22.20;98.63;100384.09;5004345;28;20033;-67
2022/08/18 00:04:37;;;;;;;10.07;3.25;;;;;;;22.19;97.97;100377.19;5005127;28;20405;-66
2022/08/18 00:07:05;;;;;;;4.15;2.85;;;;;;;22.18;97.52;100373.72;5003884;28;20481;-68
2022/08/18 00:09:33;;;;;;;4.68;2.35;;;;;;;22.16;97.23;100370.47;4991466;28;20033;-67
2022/08/18 00:12:00;;;;;;;5.82;3.10;;;;;;;22.16;96.80;100373.13;5002739;28;20383;-65
2022/08/18 00:14:26;;;;;;;8.95;3.67;;;;;;;22.17;96.85;100369.44;5004768;28;20029;-66
2022/08/18 00:16:53;;;;;;;11.27;3.50;;;;;;;22.22;96.28;100370.59;5006312;28;20461;-65
2022/08/18 00:19:19;;;;;;;7.47;3.30;;;;;;;22.22;96.26;100379.34;5002923;28;20072;-66
2022/08/18 00:21:44;;;;;;;9.52;3.55;;;;;;;22.20;96.01;100378.00;5003627;28;20042;-69
2022/08/18 00:24:10;;;;;;;4.95;3.03;;;;;;;22.15;95.80;100368.03;5006151;28;20036;-66
2022/08/18 00:26:35;;;;;;;6.72;3.15;;;;;;;22.18;94.86;100371.06;4998163;28;20061;-67
2022/08/18 00:29:01;;;;;;;6.07;3.15;;;;;;;22.16;95.07;100367.81;5008745;28;20405;-68
2022/08/18 00:31:26;;;;;;;6.78;3.28;;;;;;;22.14;95.87;100367.22;5005915;28;20034;-67
2022/08/18 00:33:52;;;;;;;13.05;3.97;;;;;;;22.05;98.17;100365.09;4994937;28;20034;-68
2022/08/18 00:36:17;;;;;;;7.32;4.05;;;;;;;22.00;99.96;100373.69;5008031;28;20022;-68
2022/08/18 00:38:43;;;;;;;8.13;4.32;;;;;;;21.96;100.00;100379.66;5004094;28;20040;-68
2022/08/18 00:41:08;;;;;;;5.97;4.20;;;;;;;21.85;100.00;100370.56;4998710;28;20488;-68
2022/08/18 00:43:41;;;;;;;9.15;4.80;;;;;;;21.77;100.00;100366.38;5005047;28;20038;-69
2022/08/18 00:46:22;;;;;;;9.32;5.30;;;;;;;21.74;100.00;100376.63;5003964;28;20041;-67
2022/08/18 00:48:48;;;;;;;11.73;4.40;;;;;;;21.77;100.00;100370.88;5000061;28;20124;-68
2022/08/18 00:51:32;;;;;;;8.00;4.60;;;;;;;21.78;100.00;100372.47;5004587;28;20045;-69
2022/08/18 00:54:07;;;;;;;7.13;4.13;;;;;;;21.74;100.00;100369.47;4995704;28;20554;-67
2022/08/18 00:56:40;;;;;;;8.60;3.83;;;;;;;21.68;100.00;100366.91;5001457;28;20664;-67
2022/08/18 00:59:13;;;;;;;10.23;3.80;;;;;;;21.70;100.00;100365.66;5004706;28;20487;-67
2022/08/18 01:01:40;;;;;;;7.15;3.58;;;;;;;21.69;100.00;100371.19;4998937;28;20509;-66
2022/08/18 01:04:15;;;;;;;6.53;3.40;;;;;;;21.63;100.00;100367.56;5004100;28;20125;-68
2022/08/18 01:06:47;;;;;;;7.60;3.03;;;;;;;21.73;100.00;100375.00;4990251;28;20478;-68
2022/08/18 01:09:13;;;;;;;7.45;3.72;;;;;;;21.78;99.36;100365.34;5010773;28;20040;-68
2022/08/18 01:11:40;;;;;;;7.28;2.92;;;;;;;21.82;98.62;100371.03;4996431;28;20033;-66
2022/08/18 01:14:07;;;;;;;5.78;2.88;;;;;;;21.80;98.64;100365.94;4994509;28;20345;-65
2022/08/18 01:22:19;;;;;;;10.30;3.80;;;;;;;21.40;100.00;100360.22;4929462;29;20050;-67
2022/08/18 01:27:30;;;;;;;7.00;3.60;;;;;;;21.35;100.00;100349.44;4928105;29;20062;-68
2022/08/18 01:30:01;;;;;;;4.35;3.95;;;;;;;21.37;100.00;100341.28;4929779;29;20036;-70
2022/08/18 01:32:26;;;;;;;7.70;3.97;;;;;;;21.33;100.00;100348.88;4929188;29;20062;-68
2022/08/18 01:34:53;;;;;;;7.93;3.75;;;;;;;21.29;100.00;100345.03;4928707;29;20492;-68
2022/08/18 01:37:22;;;;;;;4.82;3.10;;;;;;;21.28;100.00;100343.41;4910483;29;20120;-69
2022/08/18 01:39:47;;;;;;;7.88;3.47;;;;;;;21.29;100.00;100347.66;4927036;29;20051;-67
2022/08/18 01:42:15;;;;;;;5.93;2.60;;;;;;;21.36;100.00;100344.97;4929638;29;20035;-66
2022/08/18 01:44:43;;;;;;;6.18;2.92;;;;;;;21.39;100.00;100337.38;4912145;29;20488;-67
2022/08/18 01:47:10;;;;;;;5.97;3.05;;;;;;;21.38;98.78;100335.78;4926969;29;20047;-68
2022/08/18 01:49:36;;;;;;;7.65;3.50;;;;;;;21.40;98.88;100338.19;4928765;29;20054;-67
2022/08/18 01:52:05;;;;;;;9.48;3.20;;;;;;;21.37;98.24;100333.34;4925741;29;20084;-66
2022/08/18 01:54:31;;;;;;;5.57;3.25;;;;;;;21.40;98.18;100332.91;4998888;28;20034;-68
2022/08/18 01:56:57;;;;;;;9.57;2.90;;;;;;;21.42;97.63;100333.50;5006116;28;20026;-66
2022/08/18 01:59:23;;;;;;;8.18;2.83;;;;;;;21.38;97.22;100319.88;5007749;28;20056;-66
2022/08/18 02:01:51;;;;;;;6.30;2.90;;;;;;;21.33;97.50;100319.72;5009882;28;20033;-68
2022/08/18 02:04:17;;;;;;;6.13;2.97;;;;;;;21.34;97.16;100323.97;5001179;28;20030;-68
2022/08/18 02:06:43;;;;;;;6.32;2.88;;;;;;;21.36;96.75;100324.56;5000644;28;20025;-65
2022/08/18 02:09:09;;;;;;;3.92;2.90;;;;;;;21.34;97.25;100328.47;5009117;28;20401;-68
2022/08/18 02:11:34;;;;;;;8.93;3.13;;;;;;;21.35;97.68;100322.16;4999070;28;20034;-68
2022/08/18 02:14:00;;;;;;;5.88;3.40;;;;;;;21.37;97.93;100328.03;5004174;28;20029;-68
2022/08/18 02:16:25;;;;;;;7.50;2.97;;;;;;;21.38;98.03;100335.78;4992212;28;20588;-66
2022/08/18 02:18:51;;;;;;;6.72;3.40;;;;;;;21.39;97.44;100329.44;4996888;28;20034;-68
2022/08/18 02:21:19;;;;;;;3.83;2.92;;;;;;;21.37;97.51;100326.19;5004557;28;20026;-65
2022/08/18 02:23:46;;;;;;;10.38;3.67;;;;;;;21.34;97.45;100341.72;5004480;28;20026;-70
2022/08/18 02:26:15;;;;;;;8.00;2.97;;;;;;;21.32;96.46;100339.28;5001994;28;20042;-65
2022/08/18 02:28:41;;;;;;;7.28;2.83;;;;;;;21.34;96.35;100336.41;5009689;28;20087;-68
2022/08/18 02:31:13;;;;;;;6.43;3.28;;;;;;;21.28;96.53;100340.75;5004744;28;20489;-66
2022/08/18 02:33:39;;;;;;;5.90;2.80;;;;;;;21.27;96.47;100336.47;5005714;28;20370;-67
2022/08/18 02:36:06;;;;;;;5.45;2.70;;;;;;;21.29;95.48;100331.78;5006970;28;20602;-67
2022/08/18 02:38:32;;;;;;;8.73;3.00;;;;;;;21.34;95.34;100336.41;5003040;28;20037;-66
2022/08/18 02:41:01;;;;;;;6.35;2.95;;;;;;;21.36;94.69;100342.31;5003962;28;20390;-69
2022/08/18 02:43:27;;;;;;;9.27;2.92;;;;;;;21.37;94.96;100346.59;5005116;28;20029;-66
2022/08/18 02:45:53;;;;;;;4.45;2.35;;;;;;;21.35;94.84;100341.50;5009369;28;20037;-67
2022/08/18 02:48:35;;;;;;;6.90;2.92;;;;;;;21.35;95.70;100353.94;5005976;28;20077;-67
2022/08/18 02:51:03;;;;;;;3.75;2.92;;;;;;;21.30;96.87;100351.94;5006624;28;20040;-68
2022/08/18 02:53:29;;;;;;;4.63;2.85;;;;;;;21.17;97.96;100346.75;5008576;28;20052;-69
2022/08/18 02:56:04;;;;;;;7.55;3.58;;;;;;;21.10;98.25;100346.00;4996037;28;20092;-66
2022/08/18 02:58:30;;;;;;;7.95;3.45;;;;;;;21.02;98.88;100356.84;5007495;28;20026;-66
2022/08/18 03:00:55;;;;;;;6.63;3.33;;;;;;;20.96;99.32;100357.69;5004816;28;20049;-66
2022/08/18 03:03:20;;;;;;;4.85;3.35;;;;;;;20.90;100.00;100346.13;5006006;28;20034;-65
2022/08/18 03:05:46;;;;;;;7.85;3.10;;;;;;;20.87;100.00;100339.41;5008376;28;20029;-66
2022/08/18 03:08:12;;;;;;;8.25;3.00;;;;;;;20.97;98.98;100327.53;5005044;28;20022;-69
2022/08/18 03:10:37;;;;;;;6.70;2.47;;;;;;;21.10;96.21;100309.72;5002692;28;20034;-71
2022/08/18 03:13:03;;;;;;;10.88;3.22;;;;;;;21.21;95.14;100313.53;5004767;28;20115;-68
2022/08/18 03:15:29;;;;;;;9.05;2.95;;;;;;;21.20;94.81;100306.56;5007337;28;20100;-66
2022/08/18 03:17:55;;;;;;;6.35;2.78;;;;;;;21.15;94.94;100303.78;5007343;28;20040;-69
2022/08/18 03:20:20;;;;;;;6.85;2.70;;;;;;;21.08;94.95;100308.31;5003441;28;20038;-67
2022/08/18 03:22:46;;;;;;;7.72;3.00;;;;;;;21.04;95.50;100313.22;5004362;28;20527;-66
2022/08/18 03:25:11;;;;;;;5.82;3.15;;;;;;;21.03;95.65;100313.44;5000791;28;20030;-68
2022/08/18 03:27:36;;;;;;;5.63;3.05;;;;;;;21.01;95.66;100310.19;4999261;28;20029;-69
2022/08/18 03:30:03;;;;;;;6.35;2.95;;;;;;;21.00;96.41;100293.50;5008372;28;20029;-66
2022/08/18 03:32:29;;;;;;;9.27;3.35;;;;;;;20.96;96.61;100294.94;5006699;28;20030;-67
2022/08/18 03:34:54;;;;;;;9.25;3.08;;;;;;;20.91;96.70;100292.13;5004443;28;20045;-64
2022/08/18 03:37:20;;;;;;;4.70;3.25;;;;;;;20.92;97.50;100293.75;5002351;28;20558;-68
2022/08/18 03:39:45;;;;;;;6.85;3.53;;;;;;;20.92;97.36;100285.00;5005086;28;20030;-68
2022/08/18 03:42:11;;;;;;;8.13;3.30;;;;;;;20.88;97.73;100276.69;5005887;28;20114;-66
2022/08/18 03:44:36;;;;;;;5.78;3.20;;;;;;;20.93;97.32;100276.03;5007836;28;20025;-67
2022/08/18 03:47:02;;;;;;;6.57;3.10;;;;;;;20.97;97.19;100274.56;5007596;28;20591;-66
2022/08/18 03:49:29;;;;;;;9.20;3.28;;;;;;;20.96;97.12;100272.97;5007954;28;20044;-66
2022/08/18 03:51:55;;;;;;;5.22;2.95;;;;;;;20.97;96.92;100269.28;4999024;28;20027;-67
2022/08/18 03:54:21;;;;;;;9.73;3.10;;;;;;;20.96;97.10;100255.22;5002460;28;20030;-66
2022/08/18 03:56:48;;;;;;;8.50;3.10;;;;;;;20.96;97.12;100251.78;4989038;28;20057;-66
2022/08/18 03:59:17;;;;;;;5.03;3.05;;;;;;;20.97;96.63;100242.78;4993024;28;20190;-67
2022/08/18 04:01:45;;;;;;;8.38;2.90;;;;;;;21.00;96.03;100232.56;4998429;28;20069;-69
2022/08/18 04:04:15;;;;;;;5.20;2.80;;;;;;;21.08;94.37;100224.34;4978042;28;20038;-68
2022/08/18 04:06:45;;;;;;;3.35;2.35;;;;;;;21.15;93.31;100222.47;4988732;28;20578;-66
2022/08/18 04:09:13;;;;;;;7.28;2.17;;;;;;;21.21;92.68;100236.69;5005286;28;20049;-68
2022/08/18 04:11:43;;;;;;;9.65;3.75;;;;;;;21.23;93.22;100242.59;5004004;28;20038;-68
2022/08/18 04:14:13;;;;;;;5.72;2.70;;;;;;;21.15;94.27;100229.59;5001894;28;20029;-66
2022/08/18 04:16:40;;;;;;;8.18;3.67;;;;;;;21.05;95.60;100235.38;5003726;28;20030;-70
2022/08/18 04:19:05;;;;;;;6.15;3.15;;;;;;;20.99;96.37;100230.16;5001198;28;20378;-65
2022/08/18 04:21:38;;;;;;;8.57;3.08;;;;;;;20.93;96.42;100233.66;4995076;28;20038;-67
2022/08/18 04:24:06;;;;;;;6.18;3.30;;;;;;;20.95;96.30;100236.91;4994352;28;20121;-68
2022/08/18 04:26:36;;;;;;;8.32;3.03;;;;;;;20.94;96.32;100241.38;4988022;28;20050;-68
2022/08/18 04:29:04;;;;;;;4.35;2.60;;;;;;;21.04;95.20;100251.50;5000840;28;20034;-66
2022/08/18 04:31:30;;;;;;;8.93;3.10;;;;;;;21.14;93.98;100259.75;5007352;28;20050;-68
2022/08/18 04:33:58;;;;;;;6.60;3.20;;;;;;;21.19;93.15;100258.06;5001019;28;20035;-68
2022/08/18 04:36:24;;;;;;;7.20;2.50;;;;;;;21.26;92.23;100273.13;4989129;28;20026;-68
2022/08/18 04:38:50;;;;;;;3.97;2.17;;;;;;;21.29;92.50;100292.03;4998089;28;20029;-69
2022/08/18 04:41:16;;;;;;;5.75;2.30;;;;;;;21.35;91.97;100315.00;5005705;28;20445;-66
2022/08/18 04:43:42;;;;;;;6.47;2.60;;;;;;;21.37;92.17;100312.13;5005434;28;20164;-67
2022/08/18 04:46:08;;;;;;;5.28;2.40;;;;;;;21.35;92.80;100330.91;5010028;28;20489;-66
2022/08/18 04:48:36;;;;;;;4.32;2.55;;;;;;;21.29;93.46;100326.47;5002249;28;20026;-67
2022/08/18 04:51:15;;;;;;;6.72;2.72;;;;;;;21.27;93.23;100312.63;5000760;28;20034;-67
2022/08/18 04:53:45;;;;;;;4.78;3.25;;;;;;;21.34;92.88;100305.44;5007974;28;20076;-66
2022/08/18 04:56:25;;;;;;;8.40;3.05;;;;;;;21.41;91.30;100322.09;4992591;28;20081;-65
2022/08/18 04:59:00;;;;;;;12.20;3.10;;;;;;;21.54;90.66;100323.81;4999509;28;20045;-65
2022/08/18 05:01:29;;;;;;;7.63;3.40;;;;;;;21.58;91.37;100332.94;5005025;28;20053;-66
2022/08/18 05:04:00;;;;;;;7.20;3.30;;;;;;;21.62;91.59;100335.97;5003046;28;20080;-65
2022/08/18 05:06:27;;;;;;;6.88;3.53;;;;;;;21.67;91.57;100322.88;5011080;28;20482;-66
2022/08/18 05:09:00;;;;;;;5.50;2.97;;;;;;;21.70;90.47;100325.88;5007590;28;20209;-65
2022/08/18 05:11:28;;;;;;;10.25;4.07;;;;;;;21.75;90.40;100325.19;4991840;28;20133;-62
2022/08/18 05:13:56;;;;;;;7.05;3.50;;;;;;;21.78;90.22;100320.25;5010329;28;20036;-65
2022/08/18 05:16:24;;;;;;;5.15;2.53;;;;;;;21.79;89.73;100326.38;5006729;28;20030;-62
2022/08/18 05:18:52;;;;;;;7.90;3.10;;;;;;;21.81;89.36;100335.72;5002973;28;20037;-66
2022/08/18 05:21:18;;;;;;;9.63;2.90;;;;;;;21.86;89.84;100345.69;5010604;28;20031;-65
2022/08/18 05:23:46;;;;;;;8.13;2.67;;;;;;;21.90;89.64;100352.16;5007718;28;20119;-68
2022/08/18 05:26:13;;;;;;;5.65;3.20;;;;;;;21.93;89.73;100353.56;5011099;28;20081;-65
2022/08/18 05:28:43;;;;;;;6.22;3.67;;;;;;;21.99;89.93;100358.00;5008106;28;20036;-68
2022/08/18 05:31:13;;;;;;;8.63;3.65;;;;;;;22.00;90.25;100351.66;5007126;28;20041;-71
2022/08/18 05:33:40;;;;;;;9.38;2.70;;;;;;;21.93;91.76;100346.41;5007173;28;20174;-67
2022/08/18 05:36:26;;;;;;;8.50;3.53;;;;;;;21.91;92.17;100345.81;4994212;28;20041;-68
2022/08/18 05:39:11;;;;;;;8.48;4.38;;;;;;;21.90;92.53;100333.59;5008112;28;20172;-69
2022/08/18 05:41:43;;;;;;;8.52;3.10;;;;;;;21.92;92.60;100326.22;5004326;28;20785;-65
2022/08/18 05:44:14;;;;;;;8.40;3.10;;;;;;;21.95;91.99;100328.44;5009335;28;20045;-68
2022/08/18 05:46:47;;;;;;;7.55;3.17;;;;;;;21.98;91.90;100322.69;5021095;28;20076;-66
2022/08/18 05:49:14;;;;;;;7.28;3.08;;;;;;;22.05;91.72;100314.69;5009117;28;20357;-69
2022/08/18 05:51:46;;;;;;;5.70;2.97;;;;;;;22.10;91.08;100312.19;5024854;28;20482;-67
2022/08/18 05:57:04;;;;;;;6.95;3.03;;;;;;;22.29;90.23;100299.66;5001008;28;20056;-68
2022/08/18 05:59:39;;;;;;;8.60;3.30;;;;;;;22.36;89.32;100300.38;5001086;28;20057;-64
2022/08/18 06:02:16;;;;;;;;;;;;;;;22.37;88.73;100299.34;5013760;28;20037;-67
2022/08/18 06:04:51;;;;;;;8.25;3.00;;;;;;;22.48;89.46;100288.78;5010577;28;19921;-64
2022/08/18 06:07:48;;;;;;;11.95;2.63;;;;;;;22.66;88.27;100295.88;5011310;28;20087;-69
2022/08/18 06:10:14;;;;;;;8.48;3.42;;;;;;;22.77;88.40;100297.72;4999932;28;20136;-66
2022/08/18 06:12:48;;;;;;;9.23;3.45;;;;;;;22.83;87.96;100298.69;5003470;28;20160;-66
2022/08/18 06:15:19;;;;;;;7.40;3.30;;;;;;;22.91;87.90;100303.66;5001552;28;20096;-66
2022/08/18 06:18:14;;;;;;;9.02;3.50;;;;;;;23.03;87.65;100303.69;5003354;28;20033;-69
2022/08/18 06:20:48;;;;;;;6.85;3.33;;;;;;;23.04;87.08;100311.44;4982962;28;20081;-65
2022/08/18 06:23:29;;;;;;;13.93;2.60;;;;;;;23.12;87.15;100312.94;5011302;28;20468;-67
2022/08/18 06:26:06;;;;;;;5.93;2.63;;;;;;;23.21;87.16;100298.25;5004711;28;20383;-67
2022/08/18 06:28:57;;;;;;;10.80;2.83;;;;;;;23.29;85.69;100300.56;5008718;28;20509;-67
2022/08/18 06:31:43;;;;;;;5.30;2.75;;;;;;;23.39;85.43;100292.81;5011048;28;20037;-65
2022/08/18 06:34:39;;;;;;;5.68;2.45;;;;;;;23.52;86.41;100297.09;5020258;28;20073;-64
2022/08/18 06:37:14;;;;;;;;;;;;;;;23.61;85.06;100292.25;4992500;28;20120;-65
2022/08/18 06:39:51;;;;;;;6.55;2.60;;;;;;;23.77;84.80;100294.16;4992044;28;19926;-65
2022/08/18 06:42:20;;;;;;;6.13;2.40;;;;;;;23.87;84.62;100294.38;5005917;28;20515;-66
2022/08/18 06:44:54;;;;;;;5.40;2.30;;;;;;;24.01;83.69;100292.25;5007450;28;20710;-65
2022/08/18 06:47:44;;;;;;;6.25;2.97;;;;;;;24.15;81.61;100294.38;5001491;28;20397;-65
2022/08/18 06:50:27;;;;;;;4.50;2.13;;;;;;;24.36;82.00;100289.47;5005375;28;20153;-67
2022/08/18 06:52:58;;;;;;;5.93;2.47;;;;;;;24.51;81.31;100287.09;5002327;28;20034;-62
2022/08/18 06:55:40;;;;;;;6.45;2.85;;;;;;;24.60;80.23;100296.28;5005874;28;20117;-66
2022/08/18 06:58:15;;;;;;;6.55;2.22;;;;;;;24.74;80.43;100297.59;5004660;28;20049;-67
2022/08/18 07:00:55;;;;;;;10.97;2.30;;;;;;;24.86;78.36;100291.38;5005132;28;20436;-66
2022/08/18 07:03:42;;;;;;;5.45;2.25;;;;;;;24.92;79.58;100285.88;5002417;28;20359;-63
2022/08/18 07:06:12;;;;;;;6.35;2.58;;;;;;;24.95;78.07;100288.06;4995015;28;20498;-64
2022/08/18 07:08:43;;;;;;;8.15;3.03;;;;;;;24.94;77.73;100273.13;5004693;28;20417;-62
2022/08/18 07:11:22;;;;;;;7.80;2.55;;;;;;;24.93;79.21;100284.84;5008431;28;20053;-63
2022/08/18 07:13:52;;;;;;;6.15;2.30;;;;;;;24.91;80.17;100283.47;4997113;28;20042;-61
2022/08/18 07:16:28;;;;;;;13.18;2.30;;;;;;;24.90;80.07;100273.84;5007647;28;20030;-64
2022/08/18 07:19:12;;;;;;;8.23;3.13;;;;;;;25.01;78.49;100276.47;5011853;28;20038;-62
2022/08/18 07:21:39;;;;;;;6.05;2.42;;;;;;;25.17;78.24;100280.16;5001424;28;20061;-62
2022/08/18 07:24:24;;;;;;;6.20;2.30;;;;;;;25.28;78.70;100265.91;5006184;28;20394;-68
2022/08/18 07:27:01;;;;;;;5.80;2.80;;;;;;;25.42;77.81;100267.19;5002905;28;20544;-67
2022/08/18 07:29:33;;;;;;;6.20;2.47;;;;;;;25.46;77.54;100267.50;5005017;28;20172;-66
2022/08/18 07:32:16;;;;;;;10.80;2.92;;;;;;;25.45;78.00;100272.03;4998722;28;20030;-63
2022/08/18 07:34:47;;;;;;;11.13;2.55;;;;;;;25.64;76.49;100269.06;5003958;28;20036;-62
2022/08/18 07:37:36;;;;;;;6.57;2.10;;;;;;;25.68;75.45;100272.84;5005347;28;20030;-70
2022/08/18 07:40:04;;;;;;;6.03;2.25;;;;;;;25.84;75.58;100258.63;5005322;28;20463;-65
2022/08/18 07:42:40;;;;;;;7.72;2.40;;;;;;;25.93;74.74;100257.16;5002698;28;20092;-63
2022/08/18 07:45:32;;;;;;;7.65;2.30;;;;;;;26.06;73.18;100240.72;5008492;28;20751;-62
2022/08/18 07:48:12;;;;;;;7.47;2.88;;;;;;;26.15;73.90;100232.25;5004433;28;21049;-64
2022/08/18 07:50:47;;;;;;;7.63;2.40;;;;;;;26.15;72.73;100216.22;5005455;28;20595;-65
2022/08/18 07:53:39;;;;;;;6.18;2.10;;;;;;;26.17;71.96;100208.78;5007962;28;20029;-67
2022/08/18 07:56:18;;;;;;;4.85;1.70;;;;;;;26.36;71.60;100208.19;5005266;28;20200;-70
2022/08/18 07:59:06;;;;;;;5.10;2.13;;;;;;;26.37;72.79;100209.81;5007473;28;20034;-65
2022/08/18 08:01:48;;;;;;;7.80;1.77;;;;;;;26.42;71.31;100217.06;5002642;28;20109;-69
2022/08/18 08:04:47;;;;;;;6.97;1.83;;;;;;;26.59;67.99;100216.91;5007303;28;20041;-68
2022/08/18 08:07:23;;;;;;;5.22;1.65;;;;;;;26.65;69.49;100216.69;5003733;28;20108;-67
2022/08/18 08:09:57;;;;;;;6.65;1.95;;;;;;;26.60;69.97;100227.34;4997997;28;20587;-65
2022/08/18 08:12:22;;;;;;;7.10;2.17;;;;;;;26.50;70.73;100208.53;5005076;28;20109;-70
2022/08/18 08:14:54;;;;;;;7.82;1.50;;;;;;;26.49;71.32;100201.59;5007364;28;20129;-65
2022/08/18 08:17:41;;;;;;;4.63;1.85;;;;;;;26.74;68.99;100191.09;5005731;28;20087;-66
2022/08/18 08:20:33;;;;;;;9.38;1.90;;;;;;;27.02;68.91;100183.78;5005502;28;20459;-65
2022/08/18 08:23:31;;;;;;;3.30;1.95;;;;;;;26.98;70.33;100175.47;5007184;28;20044;-70
2022/08/18 08:26:19;;;;;;;6.43;1.52;;;;;;;27.21;67.87;100187.63;4986634;28;20125;-71
2022/08/18 08:29:02;;;;;;;4.45;1.90;;;;;;;27.58;67.36;100179.47;4988474;28;20533;-70
2022/08/18 08:31:41;;;;;;;4.72;1.25;;;;;;;27.72;66.60;100156.53;4973191;28;20485;-64
2022/08/18 08:34:26;;;;;;;4.47;1.70;;;;;;;27.79;67.01;100152.78;4986563;28;20046;-68
2022/08/18 08:37:26;;;;;;;6.70;1.83;;;;;;;27.77;67.03;100141.56;4988457;28;20078;-70
2022/08/18 08:39:59;;;;;;;5.53;1.42;;;;;;;27.97;66.72;100126.28;4990325;28;20038;-64
2022/08/18 08:42:44;;;;;;;9.30;1.90;;;;;;;28.18;62.16;100137.00;4990126;28;20046;-60
2022/08/18 08:45:15;;;;;;;4.10;1.23;;;;;;;28.43;64.03;100134.31;4974127;28;20042;-65
2022/08/18 08:48:05;;;;;;;10.95;1.80;;;;;;;28.58;63.40;100137.00;4987385;28;20489;-68
2022/08/18 08:50:48;;;;;;;7.07;1.50;;;;;;;28.60;62.49;100128.69;4986280;28;20054;-62
2022/08/18 08:53:27;;;;;;;3.45;1.40;;;;;;;28.65;61.61;100134.84;4985648;28;20034;-68
2022/08/18 08:55:58;;;;;;;9.20;1.52;;;;;;;28.88;61.95;100135.31;4983523;28;20295;-69
2022/08/18 08:58:27;;;;;;;6.07;1.05;;;;;;;28.96;59.90;100126.72;4985974;28;20589;-63
2022/08/18 09:00:54;;;;;;;3.65;0.77;;;;;;;28.97;61.28;100125.63;4990344;28;20045;-64
2022/08/18 09:10:42;;;;;;;7.57;1.65;;;;;;;28.31;61.77;100110.53;4965286;28;20387;-68
2022/08/18 09:13:37;;;;;;;7.45;1.63;;;;;;;28.50;59.44;100116.09;4963434;28;20042;-69
2022/08/18 09:16:11;;;;;;;6.35;1.33;;;;;;;28.66;57.28;100125.72;4965796;28;20110;-69
2022/08/18 09:19:09;;;;;;;8.27;1.88;;;;;;;28.81;56.38;100129.44;4967533;28;20137;-64
2022/08/18 09:21:44;;;;;;;5.45;1.63;;;;;;;28.86;57.28;100140.16;4961981;28;20118;-65
2022/08/18 09:24:27;;;;;;;6.40;1.00;;;;;;;28.72;56.30;100132.69;4966203;28;20051;-65
2022/08/18 09:27:02;;;;;;;5.45;1.13;;;;;;;28.73;56.96;100123.56;4984023;28;20050;-67
2022/08/18 09:29:36;;;;;;;9.45;1.40;;;;;;;28.88;55.24;100132.63;4966486;28;20149;-70
2022/08/18 09:32:20;;;;;;;5.78;1.58;;;;;;;29.00;55.37;100130.47;4971545;28;20506;-60
2022/08/18 09:35:07;;;;;;;7.15;1.25;;;;;;;28.99;55.20;100128.84;4968622;28;20030;-65
2022/08/18 09:43:51;;;;;;;4.68;1.20;;;;;;;28.79;56.04;100142.31;5005920;28;20088;-65
2022/08/18 09:46:42;;;;;;;4.55;1.38;;;;;;;28.74;52.96;100151.97;4995284;28;20042;-67
2022/08/18 09:49:26;;;;;;;5.75;0.95;;;;;;;28.93;50.91;100154.88;4997379;28;20524;-66
2022/08/18 09:51:58;;;;;;;4.65;1.05;;;;;;;28.93;53.18;100164.81;5008216;28;20396;-66
2022/08/18 09:54:30;;;;;;;4.80;1.10;;;;;;;28.94;52.54;100164.53;5006775;28;20030;-63
2022/08/18 09:57:27;;;;;;;5.95;1.27;;;;;;;29.01;51.28;100185.69;4993391;28;20060;-64
2022/08/18 10:00:18;;;;;;;4.35;1.13;;;;;;;29.14;53.38;100209.25;4991148;28;20046;-64
2022/08/18 10:02:47;;;;;;;4.55;1.50;;;;;;;29.13;53.88;100218.38;4997423;28;20149;-66
2022/08/18 10:07:52;;;;;;;8.27;1.80;;;;;;;29.30;55.09;100224.22;5004643;28;20413;-66
2022/08/18 10:10:38;;;;;;;8.63;1.83;;;;;;;29.38;56.84;100210.22;5009302;28;20022;-63
2022/08/18 10:13:28;;;;;;;8.93;1.92;;;;;;;29.34;57.81;100219.09;5009145;28;20048;-66
2022/08/18 10:16:09;;;;;;;8.38;2.15;;;;;;;29.30;57.61;100210.03;5021835;28;20088;-63
2022/08/18 10:18:55;;;;;;;7.07;2.00;;;;;;;29.23;57.46;100199.59;5010787;28;20033;-59
2022/08/18 10:21:27;;;;;;;6.15;2.22;;;;;;;29.28;58.30;100186.16;5004316;28;20491;-58
2022/08/18 10:24:02;;;;;;;11.52;2.42;;;;;;;29.29;58.06;100166.28;5004170;28;20036;-66
2022/08/18 10:26:30;;;;;;;7.30;1.73;;;;;;;29.33;57.58;100167.31;4997634;28;20104;-67
2022/08/18 10:28:56;;;;;;;5.78;2.25;;;;;;;29.31;58.65;100158.75;5000073;28;20485;-64
2022/08/18 10:31:22;;;;;;;4.30;1.65;;;;;;;29.36;58.55;100147.19;5012311;28;20029;-64
2022/08/18 10:34:08;;;;;;;8.20;2.10;;;;;;;29.22;56.38;100138.97;4973508;28;20117;-64
2022/08/18 10:36:49;;;;;;;4.65;1.58;;;;;;;29.29;54.20;100131.41;5011189;28;20568;-64
2022/08/18 10:39:19;;;;;;;5.82;2.15;;;;;;;29.24;56.60;100114.53;5010206;28;20045;-61
2022/08/18 10:42:09;;;;;;;5.95;1.88;;;;;;;29.19;56.52;100118.03;5012042;28;20046;-65
2022/08/18 10:44:42;;;;;;;5.10;1.33;;;;;;;29.13;56.07;100124.50;4994179;28;20069;-61
2022/08/18 10:47:19;;;;;;;6.60;1.80;;;;;;;29.23;57.14;100137.06;5003820;28;20021;-65
2022/08/18 10:49:49;;;;;;;6.78;1.75;;;;;;;29.37;58.64;100164.88;5003918;28;20038;-66
2022/08/18 10:52:43;;;;;;;7.88;1.73;;;;;;;29.53;57.33;100189.81;5003811;28;20030;-63
2022/08/18 10:55:11;;;;;;;6.90;1.70;;;;;;;29.62;57.66;100193.53;4987548;28;20043;-61
2022/08/18 10:57:52;;;;;;;5.50;2.10;;;;;;;29.53;57.45;100211.28;4998423;28;20509;-64
2022/08/18 11:00:20;;;;;;;7.68;1.75;;;;;;;29.46;58.49;100237.59;5002176;28;20485;-63
2022/08/18 11:03:08;;;;;;;4.57;1.95;;;;;;;29.42;58.78;100258.00;5005094;28;20450;-60
2022/08/18 11:05:33;;;;;;;8.65;1.60;;;;;;;29.37;57.99;100267.66;4985754;28;20043;-61
2022/08/18 11:08:11;;;;;;;10.32;1.50;;;;;;;29.36;56.90;100279.47;5003751;28;20443;-65
2022/08/18 11:10:47;;;;;;;4.88;1.15;;;;;;;29.45;57.84;100295.84;5008917;28;20029;-68
2022/08/18 11:13:38;;;;;;;9.55;1.30;;;;;;;29.56;55.56;100318.91;5012126;28;20041;-64
2022/08/18 11:16:30;;;;;;;6.78;1.23;;;;;;;29.54;56.26;100330.97;5008757;28;20029;-64
2022/08/18 11:19:05;;;;;;;4.72;1.40;;;;;;;29.38;57.43;100327.50;5006886;28;20029;-64
2022/08/18 11:21:41;;;;;;;8.68;0.95;;;;;;;29.29;57.03;100334.50;5005336;28;20116;-61
2022/08/18 11:24:15;;;;;;;11.85;1.05;;;;;;;29.32;56.22;100344.69;5005354;28;20044;-60
2022/08/18 11:26:42;;;;;;;14.07;1.45;;;;;;;29.24;56.49;100346.06;5005005;28;20549;-62
2022/08/18 11:29:28;;;;;;;9.40;1.63;;;;;;;29.05;55.28;100347.69;5000510;28;20054;-67
2022/08/18 11:31:57;;;;;;;5.10;1.20;;;;;;;28.86;57.52;100368.84;5006669;28;20124;-59
2022/08/18 11:34:52;;;;;;;9.50;1.27;;;;;;;28.61;56.24;100398.31;5007017;28;20195;-64
2022/08/18 11:37:33;;;;;;;;;;;;;;;28.41;56.29;100412.44;5003776;28;20551;-62
2022/08/18 11:40:02;;;;;;;9.18;1.25;;;;;;;28.32;58.79;100438.16;5004937;28;20007;-68
2022/08/18 11:42:34;;;;;;;8.15;1.20;;;;;;;28.21;58.67;100458.75;5007340;28;20041;-67
2022/08/18 11:45:12;;;;;;;5.78;1.05;;;;;;;28.11;58.70;100468.56;4999942;28;20036;-61
2022/08/18 11:47:37;;;;;;;10.48;1.38;;;;;;;28.00;59.67;100489.91;5002071;28;20031;-64
2022/08/18 11:50:10;;;;;;;6.97;1.15;;;;;;;27.90;60.99;100532.69;5006638;28;20034;-66
2022/08/18 11:52:49;;;;;;;11.20;1.35;;;;;;;27.73;64.13;100580.22;5010369;28;20038;-66
2022/08/18 11:55:40;;;;;;;9.55;1.67;;;;;;;27.41;64.93;100641.72;4995192;28;20029;-66
2022/08/18 11:58:06;;;;;;;9.18;2.03;;;;;;;27.14;67.46;100723.75;4999219;28;20041;-62
2022/08/18 12:00:36;;;;;;;11.75;1.88;;;;;;;25.52;75.74;100772.50;5003233;28;20026;-65
2022/08/18 12:03:09;;;;;;;9.98;1.00;;;;;;;23.95;83.04;100778.31;4996345;28;20136;-62
2022/08/18 12:05:48;;;;;;;14.55;1.48;;;;;;;23.13;88.49;100820.31;4997198;28;20072;-63
2022/08/18 12:08:21;;;;;;;9.20;1.25;;;;;;;22.39;92.48;100863.50;4999548;28;20033;-63
2022/08/18 12:10:47;;;;;;;6.57;1.45;;;;;;;22.09;94.27;100878.34;5000656;28;20048;-69
2022/08/18 12:13:22;;;;;;;5.90;1.25;;;;;;;21.99;97.83;100905.28;5005351;28;20041;-67
2022/08/18 12:16:06;;;;;;;9.80;1.75;;;;;;;21.83;98.76;100844.72;4993005;28;20042;-68
2022/08/18 12:18:32;;;;;;;12.50;2.50;;;;;;;21.55;100.00;100784.03;4999901;28;20449;-66
2022/08/18 12:20:58;;;;;;;7.13;1.20;;;;;;;21.11;100.00;100702.59;5004859;28;20033;-66